createdAt,value
2022-08-22T00:02:16.412Z,99.90
2022-08-22T00:02:45.629Z,99.90
2022-08-22T00:03:01.452Z,99.90
2022-08-22T00:03:10.898Z,99.90
2022-08-22T00:04:47.605Z,99.90
2022-08-22T00:07:33.122Z,99.90
2022-08-22T00:09:59.919Z,99.90
2022-08-22T00:12:36.432Z,99.90
2022-08-22T00:15:13.208Z,99.90
2022-08-22T00:18:19.713Z,99.90
2022-08-22T00:20:53.051Z,99.90
2022-08-22T00:23:27.387Z,99.90
2022-08-22T00:25:59.045Z,99.90
2022-08-22T00:28:28.873Z,99.90
2022-08-22T00:31:22.024Z,99.90
2022-08-22T00:33:52.956Z,99.90
2022-08-22T00:36:24.671Z,99.90
2022-08-22T00:39:17.498Z,99.90
2022-08-22T00:41:59.108Z,99.90
2022-08-22T00:44:31.916Z,99.90
2022-08-22T00:47:02.172Z,99.90
2022-08-22T00:49:31.902Z,99.90
2022-08-22T00:52:13.091Z,99.90
2022-08-22T00:54:52.177Z,99.90
2022-08-22T00:57:21.787Z,99.90
2022-08-22T00:59:51.717Z,99.90
2022-08-22T01:02:21.975Z,99.90
2022-08-22T01:04:54.587Z,99.90
2022-08-22T01:07:37.853Z,99.90
2022-08-22T01:10:24.052Z,99.90
2022-08-22T01:13:15.456Z,99.90
2022-08-22T01:15:42.730Z,99.90
2022-08-22T01:18:20.851Z,99.90
2022-08-22T01:21:13.701Z,99.90
2022-08-22T01:23:52.797Z,99.90
2022-08-22T01:26:22.783Z,99.90
2022-08-22T01:29:11.292Z,99.90
2022-08-22T01:31:51.686Z,99.90
2022-08-22T01:34:37.491Z,99.90
2022-08-22T01:37:23.027Z,99.90
2022-08-22T01:39:49.900Z,99.90
2022-08-22T01:42:22.778Z,99.90
2022-08-22T01:45:09.871Z,99.90
2022-08-22T01:47:50.439Z,99.90
2022-08-22T01:50:21.134Z,99.90
2022-08-22T01:52:50.944Z,99.90
2022-08-22T01:55:24.755Z,99.90
2022-08-22T01:58:00.624Z,99.90
2022-08-22T02:00:34.636Z,99.90
2022-08-22T02:03:05.331Z,99.90
2022-08-22T02:05:37.434Z,99.90
2022-08-22T02:08:19.357Z,99.90
2022-08-22T02:11:05.150Z,99.90
2022-08-22T02:13:47.043Z,99.90
2022-08-22T02:16:20.316Z,99.90
2022-08-22T02:18:53.160Z,99.90
2022-08-22T02:21:27.575Z,99.90
2022-08-22T02:24:00.606Z,99.90
2022-08-22T02:26:50.121Z,99.90
2022-08-22T02:29:23.291Z,99.90
2022-08-22T02:32:08.859Z,99.90
2022-08-22T02:34:40.700Z,99.90
2022-08-22T02:37:13.088Z,99.90
2022-08-22T02:39:42.747Z,99.90
2022-08-22T02:42:21.818Z,99.90
2022-08-22T02:44:48.845Z,99.90
2022-08-22T02:47:33.071Z,99.90
2022-08-22T02:50:13.578Z,99.90
2022-08-22T02:52:59.272Z,99.90
2022-08-22T02:55:38.181Z,99.90
2022-08-22T02:58:18.627Z,99.90
2022-08-22T03:00:49.725Z,99.90
2022-08-22T03:03:23.715Z,99.90
2022-08-22T03:06:01.062Z,99.90
2022-08-22T03:08:29.363Z,99.90
2022-08-22T03:11:01.570Z,99.90
2022-08-22T03:13:47.234Z,99.90
2022-08-22T03:16:18.514Z,99.90
2022-08-22T03:18:45.298Z,99.90
2022-08-22T03:21:14.862Z,99.90
2022-08-22T03:24:00.473Z,99.90
2022-08-22T03:26:37.009Z,99.90
2022-08-22T03:29:06.287Z,99.90
2022-08-22T03:31:33.230Z,99.90
2022-08-22T03:34:21.496Z,99.90
2022-08-22T03:36:58.898Z,99.90
2022-08-22T03:39:41.072Z,99.90
2022-08-22T03:42:12.262Z,99.90
2022-08-22T03:44:42.657Z,99.90
2022-08-22T03:47:28.333Z,99.90
2022-08-22T03:50:11.178Z,99.90
2022-08-22T03:53:15.466Z,99.90
2022-08-22T03:56:04.510Z,99.90
2022-08-22T03:58:49.957Z,99.90
2022-08-22T04:01:37.957Z,99.90
2022-08-22T04:04:16.788Z,99.90
2022-08-22T04:07:13.859Z,99.90
2022-08-22T04:10:13.934Z,99.90
2022-08-22T04:12:50.659Z,99.90
2022-08-22T04:15:36.244Z,99.90
2022-08-22T04:18:06.124Z,99.90
2022-08-22T04:20:35.754Z,99.90
2022-08-22T04:23:09.729Z,99.90
2022-08-22T04:25:42.443Z,99.90
2022-08-22T04:28:13.382Z,99.90
2022-08-22T04:30:55.794Z,99.90
2022-08-22T04:33:26.279Z,99.90
2022-08-22T04:35:53.092Z,99.90
2022-08-22T04:38:22.333Z,99.90
2022-08-22T04:41:02.577Z,99.90
2022-08-22T04:43:40.181Z,99.90
2022-08-22T04:46:17.526Z,99.90
2022-08-22T04:49:06.020Z,99.90
2022-08-22T04:51:38.967Z,99.90
2022-08-22T04:54:24.891Z,99.90
2022-08-22T04:56:54.701Z,99.90
2022-08-22T04:59:23.899Z,99.90
2022-08-22T05:01:54.624Z,99.90
2022-08-22T05:04:25.631Z,99.90
2022-08-22T05:06:55.236Z,99.90
2022-08-22T05:09:25.594Z,99.90
2022-08-22T05:11:53.764Z,99.90
2022-08-22T05:14:29.653Z,99.90
2022-08-22T05:16:57.794Z,99.90
2022-08-22T05:19:31.903Z,99.90
2022-08-22T05:21:59.704Z,99.90
2022-08-22T05:24:40.820Z,99.90
2022-08-22T05:27:11.945Z,99.90
2022-08-22T05:29:40.194Z,99.90
2022-08-22T05:32:12.366Z,99.90
2022-08-22T05:34:41.095Z,99.90
2022-08-22T05:37:16.274Z,99.90
2022-08-22T05:39:47.274Z,99.90
2022-08-22T05:42:18.505Z,99.90
2022-08-22T05:44:45.384Z,99.90
2022-08-22T05:47:27.053Z,99.90
2022-08-22T05:49:58.681Z,99.90
2022-08-22T05:52:44.514Z,99.90
2022-08-22T05:55:14.290Z,99.90
2022-08-22T05:57:42.832Z,99.90
2022-08-22T06:00:12.217Z,99.90
2022-08-22T06:02:48.730Z,99.90
2022-08-22T06:05:20.892Z,99.90
2022-08-22T06:07:49.148Z,99.90
2022-08-22T06:10:36.219Z,99.90
2022-08-22T06:13:11.699Z,99.90
2022-08-22T06:15:48.167Z,99.90
2022-08-22T06:18:17.448Z,99.90
2022-08-22T06:20:47.596Z,99.90
2022-08-22T06:23:17.325Z,99.90
2022-08-22T06:25:47.064Z,99.90
2022-08-22T06:28:17.654Z,99.90
2022-08-22T06:30:45.841Z,99.90
2022-08-22T06:33:15.872Z,99.90
2022-08-22T06:36:05.408Z,99.90
2022-08-22T06:38:34.723Z,99.90
2022-08-22T06:41:03.276Z,99.90
2022-08-22T06:43:36.626Z,99.90
2022-08-22T06:46:03.854Z,99.90
2022-08-22T06:48:31.018Z,99.90
2022-08-22T06:50:58.715Z,99.90
2022-08-22T06:53:36.149Z,99.90
2022-08-22T06:56:07.488Z,99.90
2022-08-22T06:58:43.443Z,99.90
2022-08-22T07:01:18.173Z,99.90
2022-08-22T07:03:46.686Z,99.90
2022-08-22T07:06:15.876Z,99.90
2022-08-22T07:08:43.862Z,99.90
2022-08-22T07:11:15.459Z,99.90
2022-08-22T07:13:44.105Z,99.90
2022-08-22T07:16:11.054Z,99.90
2022-08-22T07:18:46.574Z,99.90
2022-08-22T07:21:22.760Z,99.90
2022-08-22T07:23:51.068Z,99.90
2022-08-22T07:26:19.310Z,99.90
2022-08-22T07:28:50.929Z,99.90
2022-08-22T07:31:30.205Z,99.90
2022-08-22T07:34:03.173Z,99.90
2022-08-22T07:36:33.812Z,99.90
2022-08-22T07:39:11.087Z,99.90
2022-08-22T07:41:44.472Z,99.90
2022-08-22T07:44:15.501Z,99.90
2022-08-22T07:46:51.290Z,99.90
2022-08-22T07:49:23.774Z,99.90
2022-08-22T07:51:55.642Z,99.90
2022-08-22T07:54:45.703Z,99.90
2022-08-22T07:57:17.553Z,99.90
2022-08-22T07:59:50.302Z,99.90
2022-08-22T08:02:18.587Z,99.90
2022-08-22T08:04:48.222Z,99.90
2022-08-22T08:07:20.533Z,99.90
2022-08-22T08:09:50.536Z,99.90
2022-08-22T08:12:18.981Z,99.90
2022-08-22T08:14:46.330Z,99.90
2022-08-22T08:17:16.250Z,99.90
2022-08-22T08:19:43.488Z,99.90
2022-08-22T08:22:16.920Z,99.90
2022-08-22T08:24:45.376Z,99.90
2022-08-22T08:27:35.780Z,99.90
2022-08-22T08:30:05.878Z,99.90
2022-08-22T08:32:37.719Z,99.90
2022-08-22T08:35:08.992Z,99.90
2022-08-22T08:37:41.631Z,99.90
2022-08-22T08:40:16.811Z,99.90
2022-08-22T08:43:13.014Z,99.90
2022-08-22T08:45:45.930Z,99.90
2022-08-22T08:48:31.630Z,99.90
2022-08-22T08:50:58.369Z,99.90
2022-08-22T08:53:38.232Z,99.90
2022-08-22T08:56:16.579Z,99.90
2022-08-22T08:59:10.332Z,99.90
2022-08-22T09:01:40.415Z,99.90
2022-08-22T09:04:15.386Z,99.90
2022-08-22T09:07:01.266Z,99.90
2022-08-22T09:09:46.927Z,99.90
2022-08-22T09:12:56.053Z,99.90
2022-08-22T09:15:27.346Z,99.90
2022-08-22T09:18:20.496Z,99.90
2022-08-22T09:20:47.787Z,99.90
2022-08-22T09:23:33.716Z,99.90
2022-08-22T09:26:10.318Z,99.90
2022-08-22T09:28:42.986Z,99.90
2022-08-22T09:31:32.881Z,99.90
2022-08-22T09:34:23.852Z,99.90
2022-08-22T09:37:14.225Z,99.90
2022-08-22T09:39:57.300Z,99.90
2022-08-22T09:42:29.945Z,99.90
2022-08-22T09:44:56.983Z,99.90
2022-08-22T09:47:26.886Z,99.90
2022-08-22T09:50:03.345Z,99.90
2022-08-22T09:52:36.786Z,99.90
2022-08-22T09:55:04.218Z,99.90
2022-08-22T09:57:46.667Z,99.90
2022-08-22T10:00:16.264Z,99.90
2022-08-22T10:03:01.611Z,99.90
2022-08-22T10:05:40.513Z,99.90
2022-08-22T10:08:20.072Z,99.90
2022-08-22T10:11:06.827Z,99.90
2022-08-22T10:13:43.543Z,99.90
2022-08-22T10:16:17.969Z,99.90
2022-08-22T10:18:53.938Z,99.90
2022-08-22T10:21:30.996Z,99.90
2022-08-22T10:24:01.560Z,99.90
2022-08-22T10:26:51.115Z,99.90
2022-08-22T10:29:36.997Z,99.90
2022-08-22T10:32:14.655Z,99.90
2022-08-22T10:34:47.442Z,99.90
2022-08-22T10:37:30.621Z,99.90
2022-08-22T10:40:11.062Z,99.90
2022-08-22T10:42:42.137Z,99.90
2022-08-22T10:45:14.871Z,99.90
2022-08-22T10:47:45.446Z,99.90
2022-08-22T10:50:18.281Z,99.90
2022-08-22T10:52:49.250Z,99.90
2022-08-22T10:55:24.531Z,99.90
2022-08-22T10:57:52.994Z,99.90
2022-08-22T11:00:29.204Z,99.90
2022-08-22T11:03:02.428Z,99.90
2022-08-22T11:05:50.119Z,99.90
2022-08-22T11:08:38.486Z,99.90
2022-08-22T11:11:07.967Z,99.90
2022-08-22T11:13:53.229Z,99.90
2022-08-22T11:16:22.995Z,99.90
2022-08-22T11:19:02.087Z,99.90
2022-08-22T11:21:37.944Z,99.90
2022-08-22T11:24:35.689Z,99.90
2022-08-22T11:27:13.010Z,99.90
2022-08-22T11:29:43.516Z,99.90
2022-08-22T11:32:17.083Z,99.90
2022-08-22T11:34:55.462Z,99.90
2022-08-22T11:37:43.789Z,99.90
2022-08-22T11:40:16.646Z,99.90
2022-08-22T11:42:49.533Z,99.90
2022-08-22T11:45:19.293Z,99.90
2022-08-22T11:48:05.065Z,99.90
2022-08-22T11:50:37.811Z,99.90
2022-08-22T11:53:25.263Z,99.90
2022-08-22T11:56:07.449Z,99.90
2022-08-22T11:58:57.743Z,99.90
2022-08-22T12:01:39.837Z,99.90
2022-08-22T12:04:09.826Z,99.90
2022-08-22T12:06:37.235Z,99.90
2022-08-22T12:09:17.999Z,99.90
2022-08-22T12:12:05.600Z,99.90
2022-08-22T12:14:32.604Z,99.90
2022-08-22T12:17:50.950Z,99.90
2022-08-22T12:20:26.087Z,99.90
2022-08-22T12:23:21.123Z,99.90
2022-08-22T12:25:53.098Z,99.90
2022-08-22T12:28:33.410Z,99.90
2022-08-22T12:31:10.884Z,99.90
2022-08-22T12:33:41.056Z,99.90
2022-08-22T12:36:18.659Z,99.90
2022-08-22T12:38:49.944Z,99.90
2022-08-22T12:41:34.762Z,99.90
2022-08-22T12:44:02.216Z,99.90
2022-08-22T12:46:29.826Z,99.90
2022-08-22T12:48:59.587Z,99.90
2022-08-22T12:51:32.371Z,99.90
2022-08-22T12:54:15.667Z,99.90
2022-08-22T12:56:47.566Z,99.90
2022-08-22T12:59:17.910Z,99.90
2022-08-22T13:01:47.093Z,99.90
2022-08-22T13:04:29.695Z,99.90
2022-08-22T13:07:07.772Z,99.90
2022-08-22T13:09:46.177Z,99.90
2022-08-22T13:12:39.915Z,99.90
2022-08-22T13:15:17.202Z,99.90
2022-08-22T13:17:46.589Z,99.90
2022-08-22T13:20:22.119Z,99.90
2022-08-22T13:22:49.143Z,99.90
2022-08-22T13:25:25.631Z,99.90
2022-08-22T13:28:02.569Z,99.90
2022-08-22T13:30:37.655Z,99.90
2022-08-22T13:33:22.404Z,99.90
2022-08-22T13:35:56.616Z,99.90
2022-08-22T13:38:26.844Z,99.90
2022-08-22T13:40:55.112Z,99.90
2022-08-22T13:43:34.505Z,99.90
2022-08-22T13:46:03.615Z,99.40
2022-08-22T13:48:46.622Z,99.50
2022-08-22T13:51:24.895Z,99.20
2022-08-22T13:54:01.985Z,99.00
2022-08-22T13:56:50.600Z,99.00
2022-08-22T13:59:51.078Z,98.20
2022-08-22T14:02:34.138Z,98.60
2022-08-22T14:05:04.321Z,98.50
2022-08-22T14:07:41.602Z,98.70
2022-08-22T14:10:20.745Z,98.20
2022-08-22T14:12:51.079Z,98.10
2022-08-22T14:15:23.552Z,98.30
2022-08-22T14:17:52.214Z,98.40
2022-08-22T14:20:31.954Z,98.70
2022-08-22T14:23:04.214Z,98.50
2022-08-22T14:25:34.591Z,98.10
2022-08-22T14:28:09.072Z,98.50
2022-08-22T14:30:49.500Z,98.40
2022-08-22T14:33:22.977Z,98.20
2022-08-22T14:35:53.493Z,98.50
2022-08-22T14:38:27.407Z,99.90
2022-08-22T14:41:07.763Z,99.90
2022-08-22T14:43:35.078Z,99.90
2022-08-22T14:46:08.993Z,99.90
2022-08-22T14:48:40.927Z,99.90
2022-08-22T14:51:10.625Z,99.90
2022-08-22T14:53:38.689Z,99.90
2022-08-22T14:56:05.557Z,99.90
2022-08-22T14:58:47.864Z,99.90
2022-08-22T15:01:17.098Z,99.90
2022-08-22T15:03:44.081Z,99.90
2022-08-22T15:06:12.783Z,99.90
2022-08-22T15:08:49.723Z,99.90
2022-08-22T15:11:23.808Z,99.90
2022-08-22T15:13:52.424Z,99.90
2022-08-22T15:16:24.324Z,99.90
2022-08-22T15:18:54.082Z,99.90
2022-08-22T15:21:24.136Z,99.90
2022-08-22T15:23:53.330Z,99.90
2022-08-22T15:26:23.976Z,99.90
2022-08-22T15:29:02.469Z,99.90
2022-08-22T15:31:31.603Z,99.90
2022-08-22T15:34:11.866Z,99.90
2022-08-22T15:36:58.426Z,99.90
2022-08-22T15:39:30.351Z,99.90
2022-08-22T15:41:58.340Z,99.90
2022-08-22T15:44:35.995Z,99.90
2022-08-22T15:47:11.617Z,99.90
2022-08-22T15:49:48.747Z,99.90
2022-08-22T15:52:22.551Z,99.90
2022-08-22T15:54:57.022Z,99.90
2022-08-22T15:57:25.395Z,99.90
2022-08-22T15:59:57.408Z,99.90
2022-08-22T16:02:27.855Z,99.90
2022-08-22T16:05:14.946Z,99.90
2022-08-22T16:07:44.704Z,99.90
2022-08-22T16:10:17.297Z,99.90
2022-08-22T16:12:45.969Z,99.90
2022-08-22T16:15:31.549Z,99.90
2022-08-22T16:17:58.373Z,99.90
2022-08-22T16:20:25.243Z,99.90
2022-08-22T16:22:58.317Z,99.90
2022-08-22T16:25:43.557Z,99.90
2022-08-22T16:28:54.285Z,99.90
2022-08-22T16:31:18.635Z,99.90
2022-08-22T16:33:46.122Z,99.90
2022-08-22T16:36:31.650Z,99.90
2022-08-22T16:38:58.560Z,99.90
2022-08-22T16:41:25.410Z,99.90
2022-08-22T16:44:24.501Z,99.90
2022-08-22T16:46:52.972Z,99.90
2022-08-22T16:49:30.245Z,99.90
2022-08-22T16:52:15.641Z,99.90
2022-08-22T16:54:46.425Z,99.90
2022-08-22T16:57:22.262Z,99.90
2022-08-22T16:59:58.272Z,99.90
2022-08-22T17:02:33.701Z,99.90
2022-08-22T17:05:06.183Z,99.90
2022-08-22T17:07:38.657Z,99.90
2022-08-22T17:10:17.611Z,99.90
2022-08-22T17:13:00.145Z,99.90
2022-08-22T17:15:37.774Z,99.90
2022-08-22T17:18:33.944Z,99.90
2022-08-22T17:21:06.299Z,99.90
2022-08-22T17:23:49.359Z,99.90
2022-08-22T17:26:26.227Z,99.90
2022-08-22T17:29:05.003Z,99.90
2022-08-22T17:31:50.737Z,99.90
2022-08-22T17:34:23.679Z,99.90
2022-08-22T17:36:59.911Z,99.90
2022-08-22T17:39:26.703Z,99.90
2022-08-22T17:41:59.377Z,99.90
2022-08-22T17:44:39.330Z,99.90
2022-08-22T17:47:17.029Z,99.90
2022-08-22T17:49:46.774Z,99.90
2022-08-22T17:52:25.625Z,99.90
2022-08-22T17:54:56.726Z,99.90
2022-08-22T17:57:42.424Z,99.90
2022-08-22T18:00:15.383Z,99.90
2022-08-22T18:02:50.591Z,99.90
2022-08-22T18:05:19.558Z,99.90
2022-08-22T18:07:46.508Z,99.90
2022-08-22T18:10:22.056Z,99.90
2022-08-22T18:12:52.414Z,99.90
2022-08-22T18:15:23.161Z,99.90
2022-08-22T18:17:56.804Z,99.90
2022-08-22T18:20:43.053Z,99.90
2022-08-22T18:23:49.641Z,99.90
2022-08-22T18:26:33.672Z,99.90
2022-08-22T18:29:20.033Z,99.90
2022-08-22T18:31:46.913Z,99.90
2022-08-22T18:34:34.089Z,99.90
2022-08-22T18:37:35.802Z,99.90
2022-08-22T18:40:05.029Z,99.90
2022-08-22T18:42:47.802Z,99.90
2022-08-22T18:45:18.360Z,99.90
2022-08-22T18:47:54.301Z,99.90
2022-08-22T18:50:32.374Z,99.90
2022-08-22T18:52:59.764Z,99.90
2022-08-22T18:55:27.271Z,99.90
2022-08-22T18:58:00.359Z,99.90
2022-08-22T19:00:36.363Z,99.90
2022-08-22T19:03:22.203Z,99.90
2022-08-22T19:06:07.649Z,99.90
2022-08-22T19:08:43.647Z,99.90
2022-08-22T19:11:36.413Z,99.90
2022-08-22T19:14:18.848Z,99.90
2022-08-22T19:16:45.666Z,99.90
2022-08-22T19:19:17.411Z,99.90
2022-08-22T19:22:22.505Z,99.90
2022-08-22T19:25:08.875Z,99.90
2022-08-22T19:27:40.531Z,99.90
2022-08-22T19:30:28.251Z,99.90
2022-08-22T19:32:56.705Z,99.90
2022-08-22T19:35:26.447Z,99.90
2022-08-22T19:38:00.307Z,99.90
2022-08-22T19:40:50.292Z,99.90
2022-08-22T19:43:30.902Z,99.90
2022-08-22T19:45:59.009Z,99.90
2022-08-22T19:48:28.082Z,99.90
2022-08-22T19:51:27.502Z,99.90
2022-08-22T19:53:57.340Z,99.90
2022-08-22T19:56:33.232Z,99.90
2022-08-22T19:59:11.504Z,99.90
2022-08-22T20:01:42.828Z,99.90
2022-08-22T20:04:21.035Z,99.90
2022-08-22T20:06:51.762Z,99.90
2022-08-22T20:09:24.867Z,99.90
2022-08-22T20:12:14.745Z,99.90
2022-08-22T20:14:44.333Z,99.90
2022-08-22T20:17:26.327Z,99.90
2022-08-22T20:22:47.202Z,99.90
2022-08-22T20:25:42.697Z,99.90
2022-08-22T20:28:19.910Z,99.90
2022-08-22T20:30:47.205Z,99.90
2022-08-22T20:33:25.070Z,99.90
2022-08-22T20:35:56.740Z,99.90
2022-08-22T20:38:25.807Z,99.90
2022-08-22T20:40:57.141Z,99.90
2022-08-22T20:43:37.666Z,99.90
2022-08-22T20:46:27.890Z,99.90
2022-08-22T20:48:55.810Z,99.90
2022-08-22T20:51:25.048Z,99.90
2022-08-22T20:53:53.919Z,99.90
2022-08-22T20:56:53.343Z,99.90
2022-08-22T20:59:29.936Z,99.90
2022-08-22T21:01:58.930Z,99.90
2022-08-22T21:04:33.330Z,99.90
2022-08-22T21:07:00.866Z,99.90
2022-08-22T21:09:46.730Z,99.90
2022-08-22T21:12:14.097Z,99.90
2022-08-22T21:14:46.210Z,99.90
2022-08-22T21:17:17.349Z,99.90
2022-08-22T21:19:44.181Z,99.90
2022-08-22T21:22:16.143Z,99.90
2022-08-22T21:24:43.053Z,99.90
2022-08-22T21:27:14.431Z,99.90
2022-08-22T21:29:46.025Z,99.90
2022-08-22T21:32:15.902Z,99.90
2022-08-22T21:34:44.265Z,99.90
2022-08-22T21:37:13.924Z,99.90
2022-08-22T21:39:43.991Z,99.90
2022-08-22T21:42:12.727Z,99.90
2022-08-22T21:44:43.123Z,99.90
2022-08-22T21:47:30.882Z,99.90
2022-08-22T21:50:13.126Z,99.90
2022-08-22T21:52:41.411Z,99.90
2022-08-22T21:55:26.840Z,99.90
2022-08-22T21:58:07.918Z,99.90
2022-08-22T22:00:53.633Z,99.90
2022-08-22T22:03:22.260Z,99.90
2022-08-22T22:05:50.318Z,99.90
2022-08-22T22:08:17.471Z,99.90
2022-08-22T22:10:45.504Z,99.90
2022-08-22T22:13:12.452Z,99.90
2022-08-22T22:15:47.152Z,99.90
2022-08-22T22:18:15.248Z,99.90
2022-08-22T22:20:42.604Z,99.90
2022-08-22T22:23:09.614Z,99.90
2022-08-22T22:25:41.474Z,99.90
2022-08-22T22:28:15.430Z,99.90
2022-08-22T22:30:42.623Z,99.90
2022-08-22T22:33:09.816Z,99.90
2022-08-22T22:35:38.036Z,99.90
2022-08-22T22:38:05.011Z,99.90
2022-08-22T22:40:31.875Z,99.90
2022-08-22T22:42:58.704Z,99.90
2022-08-22T22:45:25.534Z,99.90
2022-08-22T22:47:52.409Z,99.90
2022-08-22T22:50:19.254Z,99.90
2022-08-22T22:52:46.072Z,99.90
2022-08-22T22:55:13.118Z,99.90
2022-08-22T22:57:59.231Z,99.90
2022-08-22T23:00:29.121Z,99.90
2022-08-22T23:02:59.605Z,99.90
2022-08-22T23:05:26.476Z,99.90
2022-08-22T23:07:53.322Z,99.90
2022-08-22T23:10:22.203Z,99.90
2022-08-22T23:12:49.289Z,99.90
2022-08-22T23:15:16.802Z,99.90
2022-08-22T23:17:43.862Z,99.90
2022-08-22T23:20:11.491Z,99.90
2022-08-22T23:22:38.473Z,99.90
2022-08-22T23:25:05.496Z,99.90
2022-08-22T23:27:32.389Z,99.90
2022-08-22T23:29:59.201Z,99.90
2022-08-22T23:32:25.985Z,99.90
2022-08-22T23:34:53.462Z,99.90
2022-08-22T23:37:21.430Z,99.90
2022-08-22T23:39:48.889Z,99.90
2022-08-22T23:42:18.084Z,99.90
2022-08-22T23:44:45.916Z,99.90
2022-08-22T23:47:13.846Z,99.90
2022-08-22T23:49:41.218Z,99.90
2022-08-22T23:52:08.597Z,99.90
2022-08-22T23:54:35.740Z,99.90
2022-08-22T23:57:03.287Z,99.90
2022-08-22T23:59:42.359Z,99.90
